• Join FlightAware (Why Join?)
  • Login
  • US Flag 
04:13AM EST


 

Airport Tracker/Info


-or-


 

Live Flight TrackerFlight Track Log ✈ DAL110 ✈ 23-Apr-2013 ✈ SAEZ / EZE - KATL

Flight Track Log - Related Links

Times and Time Zones

All times are in EDT time to prevent confusion due to time zone crossing. See the DAL110 flight status page for this flight to view local times or setup timezone preferences in your user account.

Time Position Orientation Groundspeed Altitude Reporting Facility
EDT Latitude Longitude Course Direction KTS MPH feet Rate Location/Type
07:25PM -34.8270 -58.5120 104° East 172 198 800  Level FlightAware
07:25PM -34.8320 -58.4980 114° Southeast 183 211 1,300 1,920 Climbing FlightAware
07:25PM -34.8380 -58.4910 136° Southeast 194 223 1,600 1,500 Climbing FlightAware
07:26PM -34.8580 -58.4630 131° Southeast 229 264 2,300 1,680 Climbing FlightAware
07:26PM -34.8730 -58.4270 117° Southeast 255 293 3,300 2,280 Climbing FlightAware
07:27PM -34.8930 -58.3920 125° Southeast 274 315 4,600 2,880 Climbing FlightAware
07:27PM -34.9140 -58.3830 161° South 280 322 5,500 3,000 Climbing FlightAware
07:28PM -34.9410 -58.3910 194° South 277 319 6,600 3,000 Climbing FlightAware
07:28PM -34.9570 -58.4090 223° Southwest 273 314 7,500 2,820 Climbing FlightAware
07:28PM -34.9650 -58.4420 254° West 277 319 8,500 2,400 Climbing FlightAware
07:29PM -34.9450 -58.4870 298° West 289 333 9,700 2,520 Climbing FlightAware
07:29PM -34.9260 -58.4980 335° Northwest 295 339 10,400 1,560 Climbing FlightAware
07:30PM -34.8630 -58.5210 343° North 341 392 11,300 1,260 Climbing FlightAware
07:30PM -34.7960 -58.5360 350° North 384 442 12,200 1,860 Climbing FlightAware
07:31PM -34.7230 -58.5390 358° North 400 460 13,800 2,580 Climbing FlightAware
07:32PM -34.6370 -58.5430 358° North 407 468 15,900 2,520 Climbing FlightAware
07:33PM -34.5640 -58.5460 358° North 416 479 17,400 2,400 Climbing FlightAware
07:33PM -34.4820 -58.5490 358° North 425 489 19,100 2,220 Climbing FlightAware
07:34PM -34.3940 -58.5530 358° North 437 503 20,600 2,100 Climbing FlightAware
07:35PM -34.3170 -58.5790 344° North 432 497 22,100 2,100 Climbing FlightAware
07:35PM -34.2460 -58.6480 321° Northwest 436 502 23,600 1,860 Climbing FlightAware
07:36PM -34.1820 -58.7080 322° Northwest 447 514 24,800 1,800 Climbing FlightAware
07:37PM -34.1030 -58.7690 327° Northwest 454 522 26,200 1,680 Climbing FlightAware
07:37PM -34.0310 -58.8270 326° Northwest 461 531 27,200 1,560 Climbing FlightAware
07:38PM -33.9590 -58.8850 326° Northwest 466 536 28,300 1,860 Climbing FlightAware
07:39PM -33.8900 -58.9420 326° Northwest 461 531 29,700 1,800 Climbing FlightAware
07:40PM -33.8090 -59.0040 328° Northwest 462 532 30,900 1,440 Climbing FlightAware
07:40PM -33.7260 -59.0680 327° Northwest 464 534 31,900 720 Climbing FlightAware
07:41PM -33.6530 -59.1240 327° Northwest 470 541 32,000 60 Climbing FlightAware
07:42PM -33.5790 -59.1800 328° Northwest 468 539 32,000  Level FlightAware
07:42PM -33.5080 -59.2360 327° Northwest 465 535 32,000  Level FlightAware
07:43PM -33.4410 -59.2880 327° Northwest 465 535 32,000  Level FlightAware
07:44PM -33.3700 -59.3420 328° Northwest 464 534 32,000  Level FlightAware
07:44PM -33.2830 -59.4080 328° Northwest 465 535 32,000  Level FlightAware
07:45PM -33.2000 -59.4710 328° Northwest 465 535 32,000  Level FlightAware
07:46PM -33.1180 -59.5330 328° Northwest 466 536 32,000  Level FlightAware
07:47PM -33.0450 -59.5880 328° Northwest 467 537 32,000  Level FlightAware
07:47PM -32.9880 -59.6320 327° Northwest 467 537 32,000  Level FlightAware
07:48PM -32.9110 -59.6920 327° Northwest 467 537 32,000  Level FlightAware
07:49PM -32.8490 -59.7390 328° Northwest 467 537 32,000  Level FlightAware
07:49PM -32.7880 -59.7870 327° Northwest 467 537 32,000  Level FlightAware
07:50PM -32.7260 -59.8350 327° Northwest 467 537 32,000  Level FlightAware
07:51PM -32.6640 -59.8820 327° Northwest 467 537 32,000  Level FlightAware
07:51PM -32.5870 -59.9420 327° Northwest 467 537 32,000  Level FlightAware
07:52PM -32.5260 -59.9890 327° Northwest 467 537 32,000  Level FlightAware
07:53PM -32.4640 -60.0360 327° Northwest 467 537 32,000  Level FlightAware
07:53PM -32.4020 -60.0840 327° Northwest 467 537 32,000  Level FlightAware
07:54PM -32.3410 -60.1310 327° Northwest 467 537 32,000  Level FlightAware
07:55PM -32.2640 -60.1900 327° Northwest 467 537 32,000  Level FlightAware
07:56PM -32.2020 -60.2380 327° Northwest 467 537 32,000  Level FlightAware
07:56PM -32.1410 -60.2850 327° Northwest 467 537 32,000  Level FlightAware
07:59PM -31.8913 -60.3997 339° North  Level Estimated
08:00PM -31.7786 -60.4512 339° North  Level Estimated
08:01PM -31.6660 -60.5026 339° North  Level Estimated
08:02PM -31.5532 -60.5538 339° North  Level Estimated
08:03PM -31.4405 -60.6050 339° North  Level Estimated
08:04PM -31.3277 -60.6560 339° North  Level Estimated
08:05PM -31.2150 -60.7069 339° North  Level Estimated
08:06PM -31.1021 -60.7577 339° North  Level Estimated
08:07PM -30.9893 -60.8084 339° North  Level Estimated
08:08PM -30.8765 -60.8589 339° North  Level Estimated
08:08PM -30.6080 -61.3870 339° North 476 548 32,000  Level FlightAware
08:09PM -30.7636 -60.9093 339° North  Level Estimated
08:09PM -30.5340 -61.4430 327° Northwest 477 549 32,000  Level FlightAware
08:10PM -30.4440 -61.5080 328° Northwest 475 547 32,000  Level FlightAware
08:11PM -30.3740 -61.5600 327° Northwest 475 547 32,000  Level FlightAware
08:11PM -30.2820 -61.6280 327° Northwest 474 545 32,000  Level FlightAware
08:12PM -30.1880 -61.6970 328° Northwest 475 547 32,000  Level FlightAware
08:13PM -30.1170 -61.7480 328° Northwest 474 545 32,000  Level FlightAware
08:14PM -30.0550 -61.7950 327° Northwest 474 545 32,000  Level FlightAware
08:14PM -29.9920 -61.8420 327° Northwest 474 545 32,000  Level FlightAware
08:15PM -29.9300 -61.8890 327° Northwest 474 545 32,000  Level FlightAware
08:16PM -29.8520 -61.9480 327° Northwest 474 545 32,000  Level FlightAware
08:16PM -29.7890 -61.9940 328° Northwest 474 545 32,000  Level FlightAware
08:17PM -29.7260 -62.0410 327° Northwest 474 545 32,000  Level FlightAware
08:18PM -29.6640 -62.0880 327° Northwest 474 545 32,000  Level FlightAware
08:18PM -29.6010 -62.1350 327° Northwest 474 545 32,000  Level FlightAware
08:19PM -29.5230 -62.1930 327° Northwest 474 545 32,000  Level FlightAware
08:20PM -29.4610 -62.2400 327° Northwest 474 545 32,000  Level FlightAware
08:21PM -29.3980 -62.2860 328° Northwest 474 545 32,000  Level FlightAware
08:21PM -29.3360 -62.3330 327° Northwest 474 545 32,000  Level FlightAware
08:22PM -29.2570 -62.3910 327° Northwest 474 545 32,000  Level FlightAware
08:25PM -28.9767 -62.5073 340° North  Level Estimated
08:26PM -28.8630 -62.5543 340° North  Level Estimated
08:27PM -28.7493 -62.6012 340° North  Level Estimated
08:28PM -28.6356 -62.6479 340° North  Level Estimated
08:29PM -28.5219 -62.6946 340° North  Level Estimated
08:30PM -28.4082 -62.7412 340° North  Level Estimated
08:31PM -28.2944 -62.7876 340° North  Level Estimated
08:32PM -28.1807 -62.8340 340° North  Level Estimated
08:33PM -28.0669 -62.8803 340° North  Level Estimated
08:34PM -27.9531 -62.9264 340° North  Level Estimated
08:35PM -27.8393 -62.9725 340° North  Level Estimated
08:36PM -27.7254 -63.0185 340° North  Level Estimated
08:37PM -27.6116 -63.0644 340° North  Level Estimated
08:38PM -27.4977 -63.1102 340° North  Level Estimated
08:39PM -27.3839 -63.1558 340° North  Level Estimated
08:40PM -27.2700 -63.2015 340° North  Level Estimated
08:41PM -27.1561 -63.2469 340° North  Level Estimated
08:42PM -27.0422 -63.2924 340° North  Level Estimated
08:43PM -26.9282 -63.3377 340° North  Level Estimated
08:44PM -26.8143 -63.3829 340° North  Level Estimated
08:45PM -26.7003 -63.4281 341° North  Level Estimated
08:46PM -26.5863 -63.4731 341° North  Level Estimated
08:47PM -26.4723 -63.5181 341° North  Level Estimated
08:48PM -26.3584 -63.5629 341° North  Level Estimated
08:49PM -26.2443 -63.6077 341° North  Level Estimated
08:50PM -26.1303 -63.6524 341° North  Level Estimated
08:51PM -26.0163 -63.6970 341° North  Level Estimated
08:52PM -25.9022 -63.7415 341° North  Level Estimated
08:53PM -25.7881 -63.7859 341° North  Level Estimated
08:54PM -25.6740 -63.8303 341° North  Level Estimated
08:55PM -25.5599 -63.8746 341° North  Level Estimated
08:56PM -25.4458 -63.9187 341° North  Level Estimated
08:57PM -25.3317 -63.9628 341° North  Level Estimated
08:58PM -25.2176 -64.0068 341° North  Level Estimated
08:59PM -25.1034 -64.0508 341° North  Level Estimated
09:00PM -24.9893 -64.0946 341° North  Level Estimated
09:01PM -24.8751 -64.1384 341° North  Level Estimated
09:02PM -24.7609 -64.1821 341° North  Level Estimated
09:03PM -24.6467 -64.2257 341° North  Level Estimated
09:04PM -24.5325 -64.2692 341° North  Level Estimated
09:05PM -24.4182 -64.3126 341° North  Level Estimated
09:06PM -24.3040 -64.3560 341° North  Level Estimated
09:07PM -24.1898 -64.3993 341° North  Level Estimated
09:08PM -24.0755 -64.4425 341° North  Level Estimated
09:09PM -23.9612 -64.4856 341° North  Level Estimated
09:10PM -23.8469 -64.5287 341° North  Level Estimated
09:11PM -23.7326 -64.5717 341° North  Level Estimated
09:12PM -23.6183 -64.6146 341° North  Level Estimated
09:13PM -23.5032 -64.6577 341° North  Level Estimated
09:14PM -23.3881 -64.7008 341° North  Level Estimated
09:15PM -23.2730 -64.7437 341° North  Level Estimated
09:16PM -23.1579 -64.7866 341° North  Level Estimated
09:17PM -23.0428 -64.8294 341° North  Level Estimated
09:18PM -22.9276 -64.8722 341° North  Level Estimated
09:19PM -22.8125 -64.9148 341° North  Level Estimated
09:20PM -22.6973 -64.9574 341° North  Level Estimated
09:21PM -22.5822 -65.0000 341° North  Level Estimated
09:22PM -22.4670 -65.0424 341° North  Level Estimated
09:23PM -22.3518 -65.0848 341° North  Level Estimated
09:24PM -22.2366 -65.1271 341° North  Level Estimated
09:25PM -22.1213 -65.1694 341° North  Level Estimated
09:26PM -22.0061 -65.2116 341° North  Level Estimated
09:27PM -21.8909 -65.2537 341° North  Level Estimated
09:28PM -21.7756 -65.2957 341° North  Level Estimated
09:29PM -21.6604 -65.3377 341° North  Level Estimated
09:30PM -21.5451 -65.3796 341° North  Level Estimated
09:31PM -21.4298 -65.4214 341° North  Level Estimated
09:32PM -21.3145 -65.4632 341° North  Level Estimated
09:33PM -21.1992 -65.5049 341° North  Level Estimated
09:34PM -21.0839 -65.5466 341° North  Level Estimated
09:35PM -20.9686 -65.5881 341° North  Level Estimated
09:36PM -20.8533 -65.6297 341° North  Level Estimated
09:37PM -20.7379 -65.6711 341° North  Level Estimated
09:38PM -20.6226 -65.7125 341° North  Level Estimated
09:39PM -20.5072 -65.7538 341° North  Level Estimated
09:40PM -20.3918 -65.7951 341° North  Level Estimated
09:41PM -20.2765 -65.8363 341° North  Level Estimated
09:42PM -20.1611 -65.8774 341° North  Level Estimated
09:43PM -20.0457 -65.9185 342° North  Level Estimated
09:44PM -19.9303 -65.9595 342° North  Level Estimated
09:45PM -19.8148 -66.0005 342° North  Level Estimated
09:46PM -19.6994 -66.0414 342° North  Level Estimated
09:47PM -19.5840 -66.0822 342° North  Level Estimated
09:48PM -19.4685 -66.1230 342° North  Level Estimated
09:49PM -19.3531 -66.1637 342° North  Level Estimated
09:50PM -19.2376 -66.2044 342° North  Level Estimated
09:51PM -19.1221 -66.2450 342° North  Level Estimated
09:52PM -19.0066 -66.2856 342° North  Level Estimated
09:53PM -18.8911 -66.3261 342° North  Level Estimated
09:54PM -18.7756 -66.3665 342° North  Level Estimated
09:55PM -18.6601 -66.4069 342° North  Level Estimated
09:56PM -18.5446 -66.4472 342° North  Level Estimated
09:57PM -18.4291 -66.4875 342° North  Level Estimated
09:58PM -18.3135 -66.5277 342° North  Level Estimated
09:59PM -18.1980 -66.5679 342° North  Level Estimated
10:00PM -18.0824 -66.6080 342° North  Level Estimated
10:01PM -17.9669 -66.6481 342° North  Level Estimated
10:02PM -17.8513 -66.6881 342° North  Level Estimated
10:03PM -17.7357 -66.7280 342° North  Level Estimated
10:04PM -17.6201 -66.7680 342° North  Level Estimated
10:05PM -17.5046 -66.8078 342° North  Level Estimated
10:06PM -17.3890 -66.8476 342° North  Level Estimated
10:07PM -17.2733 -66.8874 342° North  Level Estimated
10:08PM -17.1577 -66.9271 342° North  Level Estimated
10:09PM -17.0421 -66.9667 342° North  Level Estimated
10:10PM -16.9265 -67.0063 342° North  Level Estimated
10:11PM -16.8108 -67.0459 342° North  Level Estimated
10:12PM -16.6952 -67.0854 342° North  Level Estimated
10:13PM -16.5793 -67.1249 342° North  Level Estimated
10:14PM -16.4635 -67.1644 342° North  Level Estimated
10:15PM -16.3476 -67.2038 342° North  Level Estimated
10:16PM -16.2317 -67.2432 342° North  Level Estimated
10:17PM -16.1159 -67.2826 342° North  Level Estimated
10:18PM -16.0000 -67.3219 342° North  Level Estimated
10:19PM -15.8841 -67.3611 342° North  Level Estimated
10:20PM -15.7682 -67.4003 342° North  Level Estimated
10:21PM -15.6523 -67.4395 342° North  Level Estimated
10:22PM -15.5364 -67.4786 342° North  Level Estimated
10:23PM -15.4204 -67.5177 342° North  Level Estimated
10:24PM -15.3045 -67.5567 342° North  Level Estimated
10:25PM -15.1886 -67.5957 342° North  Level Estimated
10:26PM -15.0726 -67.6346 342° North  Level Estimated
10:27PM -14.9567 -67.6735 342° North  Level Estimated
10:28PM -14.8407 -67.7124 342° North  Level Estimated
10:29PM -14.7248 -67.7512 342° North  Level Estimated
10:30PM -14.6088 -67.7899 342° North  Level Estimated
10:31PM -14.4928 -67.8287 342° North  Level Estimated
10:32PM -14.3769 -67.8674 342° North  Level Estimated
10:33PM -14.2609 -67.9060 342° North  Level Estimated
10:34PM -14.1449 -67.9446 342° North  Level Estimated
10:35PM -14.0289 -67.9832 342° North  Level Estimated
10:36PM -13.9129 -68.0217 342° North  Level Estimated
10:37PM -13.7969 -68.0602 342° North  Level Estimated
10:38PM -13.6809 -68.0987 342° North  Level Estimated
10:39PM -13.5648 -68.1371 342° North  Level Estimated
10:40PM -13.4488 -68.1755 342° North  Level Estimated
10:41PM -13.3328 -68.2138 342° North  Level Estimated
10:42PM -13.2167 -68.2521 342° North  Level Estimated
10:43PM -13.1007 -68.2904 342° North  Level Estimated
10:44PM -12.9846 -68.3286 342° North  Level Estimated
10:45PM -12.8686 -68.3668 342° North  Level Estimated
10:46PM -12.7525 -68.4050 342° North  Level Estimated
10:47PM -12.6364 -68.4431 342° North  Level Estimated
10:48PM -12.5204 -68.4812 342° North  Level Estimated
10:49PM -12.4043 -68.5193 342° North  Level Estimated
10:50PM -12.2882 -68.5573 342° North  Level Estimated
10:51PM -12.1721 -68.5953 342° North  Level Estimated
10:52PM -12.0560 -68.6332 342° North  Level Estimated
10:53PM -11.9399 -68.6712 342° North  Level Estimated
10:54PM -11.8238 -68.7091 342° North  Level Estimated
10:55PM -11.7077 -68.7469 342° North  Level Estimated
10:56PM -11.5916 -68.7848 342° North  Level Estimated
10:57PM -11.4755 -68.8226 342° North  Level Estimated
10:58PM -11.3594 -68.8603 342° North  Level Estimated
10:59PM -11.2432 -68.8981 342° North  Level Estimated
11:00PM -11.1271 -68.9358 342° North  Level Estimated
11:01PM -11.0110 -68.9735 342° North  Level Estimated
11:02PM -10.8948 -69.0111 342° North  Level Estimated
11:03PM -10.7787 -69.0487 342° North  Level Estimated
11:04PM -10.6625 -69.0863 342° North  Level Estimated
11:05PM -10.5464 -69.1239 342° North  Level Estimated
11:06PM -10.4302 -69.1614 342° North  Level Estimated
11:07PM -10.3141 -69.1989 342° North  Level Estimated
11:08PM -10.1979 -69.2364 342° North  Level Estimated
11:09PM -10.0817 -69.2738 342° North  Level Estimated
11:10PM -9.9655 -69.3113 342° North  Level Estimated
11:11PM -9.8494 -69.3486 342° North  Level Estimated
11:12PM -9.7332 -69.3860 342° North  Level Estimated
11:13PM -9.6170 -69.4234 342° North  Level Estimated
11:14PM -9.5008 -69.4607 342° North  Level Estimated
11:15PM -9.3846 -69.4980 342° North  Level Estimated
11:16PM -9.2684 -69.5352 342° North  Level Estimated
11:17PM -9.1522 -69.5725 342° North  Level Estimated
11:18PM -9.0360 -69.6097 342° North  Level Estimated
11:19PM -8.9198 -69.6469 342° North  Level Estimated
11:20PM -8.8035 -69.6841 342° North  Level Estimated
11:21PM -8.6873 -69.7212 342° North  Level Estimated
11:22PM -8.5711 -69.7583 342° North  Level Estimated
11:23PM -8.4549 -69.7954 342° North  Level Estimated
11:24PM -8.3386 -69.8325 342° North  Level Estimated
11:25PM -8.2224 -69.8696 342° North  Level Estimated
11:26PM -8.1062 -69.9066 342° North  Level Estimated
11:27PM -7.9899 -69.9436 342° North  Level Estimated
11:28PM -7.8737 -69.9806 343° North  Level Estimated
11:29PM -7.7569 -70.0178 343° North  Level Estimated
11:30PM -7.6400 -70.0549 343° North  Level Estimated
11:31PM -7.5232 -70.0920 343° North  Level Estimated
11:32PM -7.4064 -70.1291 343° North  Level Estimated
11:33PM -7.2895 -70.1662 343° North  Level Estimated
11:34PM -7.1727 -70.2032 343° North  Level Estimated
11:35PM -7.0558 -70.2403 343° North  Level Estimated
11:36PM -6.9390 -70.2773 343° North  Level Estimated
11:37PM -6.8221 -70.3143 343° North  Level Estimated
11:38PM -6.7052 -70.3513 343° North  Level Estimated
11:39PM -6.5884 -70.3882 343° North  Level Estimated
11:40PM -6.4715 -70.4252 343° North  Level Estimated
11:41PM -6.3547 -70.4621 343° North  Level Estimated
11:42PM -6.2378 -70.4990 343° North  Level Estimated
11:43PM -6.1209 -70.5359 343° North  Level Estimated
11:44PM -6.0040 -70.5728 343° North  Level Estimated
11:45PM -5.8872 -70.6097 343° North  Level Estimated
11:46PM -5.7703 -70.6465 343° North  Level Estimated
11:47PM -5.6534 -70.6833 343° North  Level Estimated
11:48PM -5.5365 -70.7202 343° North  Level Estimated
11:49PM -5.4197 -70.7570 343° North  Level Estimated
11:50PM -5.3028 -70.7938 343° North  Level Estimated
11:51PM -5.1859 -70.8305 343° North  Level Estimated
11:52PM -5.0690 -70.8673 343° North  Level Estimated
11:53PM -4.9521 -70.9041 343° North  Level Estimated
11:54PM -4.8352 -70.9408 343° North  Level Estimated
11:55PM -4.7183 -70.9775 343° North  Level Estimated
11:56PM -4.6014 -71.0142 343° North  Level Estimated
11:57PM -4.4845 -71.0509 343° North  Level Estimated
11:58PM -4.3676 -71.0876 343° North  Level Estimated
11:59PM -4.2507 -71.1243 343° North  Level Estimated
12:00AM -4.1338 -71.1609 343° North  Level Estimated
12:01AM -4.0169 -71.1976 343° North  Level Estimated
12:02AM -3.9000 -71.2342 343° North  Level Estimated
12:03AM -3.7831 -71.2709 343° North  Level Estimated
12:04AM -3.6661 -71.3075 343° North  Level Estimated
12:05AM -3.5492 -71.3441 343° North  Level Estimated
12:06AM -3.4323 -71.3807 343° North  Level Estimated
12:07AM -3.3154 -71.4173 343° North  Level Estimated
12:08AM -3.1985 -71.4539 343° North  Level Estimated
12:09AM -3.0815 -71.4905 343° North  Level Estimated
12:10AM -2.9646 -71.5270 343° North  Level Estimated
12:11AM -2.8477 -71.5636 343° North  Level Estimated
12:12AM -2.7308 -71.6002 343° North  Level Estimated
12:13AM -2.6139 -71.6367 343° North  Level Estimated
12:14AM -2.4969 -71.6732 343° North  Level Estimated
12:15AM -2.3800 -71.7098 343° North  Level Estimated
12:16AM -2.2631 -71.7463 343° North  Level Estimated
12:17AM -2.1462 -71.7828 343° North  Level Estimated
12:18AM -2.0292 -71.8194 343° North  Level Estimated
12:19AM -1.9123 -71.8559 343° North  Level Estimated
12:20AM -1.7954 -71.8924 343° North  Level Estimated
12:21AM -1.6784 -71.9289 343° North  Level Estimated
12:22AM -1.5615 -71.9654 343° North  Level Estimated
12:23AM -1.4446 -72.0019 343° North  Level Estimated
12:24AM -1.3276 -72.0384 343° North  Level Estimated
12:25AM -1.2107 -72.0748 343° North  Level Estimated
12:26AM -1.0938 -72.1113 343° North  Level Estimated
12:27AM -0.9768 -72.1478 343° North  Level Estimated
12:28AM -0.8599 -72.1843 343° North  Level Estimated
12:29AM -0.7430 -72.2208 343° North  Level Estimated
12:30AM -0.6260 -72.2572 343° North  Level Estimated
12:31AM -0.5091 -72.2937 343° North  Level Estimated
12:32AM -0.3921 -72.3302 343° North  Level Estimated
12:33AM -0.2752 -72.3666 343° North  Level Estimated
12:34AM -0.1583 -72.4031 343° North  Level Estimated
12:35AM -0.0413 -72.4396 343° North  Level Estimated
12:36AM 0.0756 -72.4761 343° North  Level Estimated
12:37AM 0.1926 -72.5125 343° North  Level Estimated
12:38AM 0.3095 -72.5490 343° North  Level Estimated
12:39AM 0.4264 -72.5855 343° North  Level Estimated
12:40AM 0.5434 -72.6219 343° North  Level Estimated
12:41AM 0.6603 -72.6584 343° North  Level Estimated
12:42AM 0.7776 -72.6950 343° North  Level Estimated
12:43AM 0.8950 -72.7316 343° North  Level Estimated
12:44AM 1.0123 -72.7682 343° North  Level Estimated
12:45AM 1.1296 -72.8048 343° North  Level Estimated
12:46AM 1.2470 -72.8414 343° North  Level Estimated
12:47AM 1.3643 -72.8780 343° North  Level Estimated
12:48AM 1.4816 -72.9146 343° North  Level Estimated
12:49AM 1.5990 -72.9512 343° North  Level Estimated
12:50AM 1.7163 -72.9879 343° North  Level Estimated
12:51AM 1.8336 -73.0245 343° North  Level Estimated
12:52AM 1.9509 -73.0611 343° North  Level Estimated
12:53AM 2.0682 -73.0978 343° North  Level Estimated
12:54AM 2.1855 -73.1344 343° North  Level Estimated
12:55AM 2.3029 -73.1711 343° North  Level Estimated
12:56AM 2.4202 -73.2077 343° North  Level Estimated
12:57AM 2.5375 -73.2444 343° North  Level Estimated
12:58AM 2.6548 -73.2810 343° North  Level Estimated
12:59AM 2.7722 -73.3177 343° North  Level Estimated
01:00AM 2.8895 -73.3544 343° North  Level Estimated
01:01AM 3.0068 -73.3911 343° North  Level Estimated
01:02AM 3.1241 -73.4278 343° North  Level Estimated
01:03AM 3.2414 -73.4645 343° North  Level Estimated
01:04AM 3.3587 -73.5012 343° North  Level Estimated
01:05AM 3.4760 -73.5379 343° North  Level Estimated
01:06AM 3.5933 -73.5746 343° North  Level Estimated
01:07AM 3.7106 -73.6114 343° North  Level Estimated
01:08AM 3.8279 -73.6481 343° North  Level Estimated
01:09AM 3.9452 -73.6849 343° North  Level Estimated
01:10AM 4.0625 -73.7217 343° North  Level Estimated
01:11AM 4.1798 -73.7584 343° North  Level Estimated
01:12AM 4.2971 -73.7952 343° North  Level Estimated
01:13AM 4.4144 -73.8320 343° North  Level Estimated
01:14AM 4.5317 -73.8688 343° North  Level Estimated
01:15AM 4.6490 -73.9057 343° North  Level Estimated
01:16AM 4.7663 -73.9425 343° North  Level Estimated
01:17AM 4.8836 -73.9794 343° North  Level Estimated
01:18AM 5.0009 -74.0162 343° North  Level Estimated
01:19AM 5.1182 -74.0531 343° North  Level Estimated
01:20AM 5.2354 -74.0900 343° North  Level Estimated
01:21AM 5.3527 -74.1269 343° North  Level Estimated
01:22AM 5.4700 -74.1638 343° North  Level Estimated
01:23AM 5.5873 -74.2008 343° North  Level Estimated
01:24AM 5.7046 -74.2377 343° North  Level Estimated
01:25AM 5.8218 -74.2747 343° North  Level Estimated
01:26AM 5.9391 -74.3116 343° North  Level Estimated
01:27AM 6.0564 -74.3486 343° North  Level Estimated
01:28AM 6.1736 -74.3856 343° North  Level Estimated
01:29AM 6.2909 -74.4227 343° North  Level Estimated
01:30AM 6.4082 -74.4597 343° North  Level Estimated
01:31AM 6.5254 -74.4968 343° North  Level Estimated
01:32AM 6.6427 -74.5339 343° North  Level Estimated
01:33AM 6.7599 -74.5710 343° North  Level Estimated
01:34AM 6.8772 -74.6081 343° North  Level Estimated
01:35AM 6.9944 -74.6452 343° North  Level Estimated
01:36AM 7.1116 -74.6823 343° North  Level Estimated
01:37AM 7.2289 -74.7195 343° North  Level Estimated
01:38AM 7.3461 -74.7567 343° North  Level Estimated
01:39AM 7.4633 -74.7939 343° North  Level Estimated
01:40AM 7.5806 -74.8311 343° North  Level Estimated
01:41AM 7.6978 -74.8684 343° North  Level Estimated
01:42AM 7.8150 -74.9057 343° North  Level Estimated
01:43AM 7.9323 -74.9429 343° North  Level Estimated
01:44AM 8.0495 -74.9803 343° North  Level Estimated
01:45AM 8.1667 -75.0176 343° North  Level Estimated
01:46AM 8.2839 -75.0549 342° North  Level Estimated
01:47AM 8.4011 -75.0923 342° North  Level Estimated
01:48AM 8.5183 -75.1297 342° North  Level Estimated
01:49AM 8.6355 -75.1672 342° North  Level Estimated
01:50AM 8.7527 -75.2046 342° North  Level Estimated
01:51AM 8.8699 -75.2421 342° North  Level Estimated
01:52AM 8.9875 -75.2797 342° North  Level Estimated
01:53AM 9.1051 -75.3173 342° North  Level Estimated
01:54AM 9.2226 -75.3550 342° North  Level Estimated
01:55AM 9.3402 -75.3927 342° North  Level Estimated
01:56AM 9.4578 -75.4304 342° North  Level Estimated
01:57AM 9.5753 -75.4682 342° North  Level Estimated
01:58AM 9.6929 -75.5059 342° North  Level Estimated
01:59AM 9.8104 -75.5437 342° North  Level Estimated
02:00AM 9.9280 -75.5816 342° North  Level Estimated
02:01AM 10.0455 -75.6194 342° North  Level Estimated
02:02AM 10.1631 -75.6573 342° North  Level Estimated
02:03AM 10.2806 -75.6952 342° North  Level Estimated
02:04AM 10.3981 -75.7331 342° North  Level Estimated
02:05AM 10.5157 -75.7711 342° North  Level Estimated
02:06AM 10.6332 -75.8091 342° North  Level Estimated
02:07AM 10.7507 -75.8471 342° North  Level Estimated
02:08AM 10.8682 -75.8852 342° North  Level Estimated
02:09AM 10.9857 -75.9232 342° North  Level Estimated
02:10AM 11.1032 -75.9613 342° North  Level Estimated
02:11AM 11.2207 -75.9995 342° North  Level Estimated
02:12AM 11.3382 -76.0377 342° North  Level Estimated
02:13AM 11.4557 -76.0759 342° North  Level Estimated
02:14AM 11.5732 -76.1141 342° North  Level Estimated
02:15AM 11.6907 -76.1524 342° North  Level Estimated
02:16AM 11.8082 -76.1907 342° North  Level Estimated
02:17AM 11.9256 -76.2290 342° North  Level Estimated
02:18AM 12.0431 -76.2674 342° North  Level Estimated
02:19AM 12.1606 -76.3058 342° North  Level Estimated
02:20AM 12.2780 -76.3442 342° North  Level Estimated
02:21AM 12.3955 -76.3827 342° North  Level Estimated
02:22AM 12.5129 -76.4212 342° North  Level Estimated
02:23AM 12.6304 -76.4597 342° North  Level Estimated
02:24AM 12.7478 -76.4983 342° North  Level Estimated
02:25AM 12.8652 -76.5369 342° North  Level Estimated
02:26AM 12.9826 -76.5756 342° North  Level Estimated
02:27AM 13.1001 -76.6143 342° North  Level Estimated
02:28AM 13.2175 -76.6530 342° North  Level Estimated
02:29AM 13.3349 -76.6917 342° North  Level Estimated
02:30AM 13.4523 -76.7305 342° North  Level Estimated
02:31AM 13.5697 -76.7694 342° North  Level Estimated
02:32AM 13.6870 -76.8082 342° North  Level Estimated
02:33AM 13.8044 -76.8472 342° North  Level Estimated
02:34AM 13.9218 -76.8861 342° North  Level Estimated
02:35AM 14.0392 -76.9251 342° North  Level Estimated
02:36AM 14.1565 -76.9641 342° North  Level Estimated
02:37AM 14.2739 -77.0032 342° North  Level Estimated
02:38AM 14.3912 -77.0423 342° North  Level Estimated
02:39AM 14.5086 -77.0815 342° North  Level Estimated
02:40AM 14.6259 -77.1206 342° North  Level Estimated
02:41AM 14.7432 -77.1599 342° North  Level Estimated
02:42AM 14.8606 -77.1992 342° North  Level Estimated
02:43AM 14.9779 -77.2385 342° North  Level Estimated
02:44AM 15.0952 -77.2778 342° North  Level Estimated
02:45AM 15.2125 -77.3173 342° North  Level Estimated
02:46AM 15.3298 -77.3567 342° North  Level Estimated
02:47AM 15.4471 -77.3962 342° North  Level Estimated
02:48AM 15.5644 -77.4357 342° North  Level Estimated
02:49AM 15.6816 -77.4753 342° North  Level Estimated
02:50AM 15.7989 -77.5150 342° North  Level Estimated
02:51AM 15.9162 -77.5546 342° North  Level Estimated
02:52AM 16.0334 -77.5944 342° North  Level Estimated
02:53AM 16.1507 -77.6341 342° North  Level Estimated
02:54AM 16.2679 -77.6740 342° North  Level Estimated
02:55AM 16.3851 -77.7138 342° North  Level Estimated
02:56AM 16.5024 -77.7537 342° North  Level Estimated
02:57AM 16.6196 -77.7937 342° North  Level Estimated
02:58AM 16.7368 -77.8337 342° North  Level Estimated
02:59AM 16.8540 -77.8737 342° North  Level Estimated
03:00AM 16.9712 -77.9139 342° North  Level Estimated
03:01AM 17.0884 -77.9540 342° North  Level Estimated
03:02AM 17.2055 -77.9942 342° North  Level Estimated
03:03AM 17.3227 -78.0345 342° North  Level Estimated
03:04AM 17.4399 -78.0748 342° North  Level Estimated
03:05AM 17.5566 -78.1150 342° North  Level Estimated
03:06AM 17.6734 -78.1553 342° North  Level Estimated
03:07AM 17.7901 -78.1956 342° North  Level Estimated
03:08AM 17.9069 -78.2360 342° North  Level Estimated
03:09AM 18.0236 -78.2765 342° North  Level Estimated
03:10AM 18.1403 -78.3170 342° North  Level Estimated
03:11AM 18.2570 -78.3575 342° North  Level Estimated
03:12AM 18.3737 -78.3981 342° North  Level Estimated
03:13AM 18.4904 -78.4388 342° North  Level Estimated
03:14AM 18.6071 -78.4795 342° North  Level Estimated
03:15AM 18.7238 -78.5202 342° North  Level Estimated
03:16AM 18.8404 -78.5611 342° North  Level Estimated
03:17AM 18.9571 -78.6020 342° North  Level Estimated
03:17AM 22.8061 -77.9181 342° North 453 521 38,000  Level Miami Center
03:18AM 19.0737 -78.6429 342° North  Level Estimated
03:18AM 22.9039 -77.9594 339° North 394 453 38,000  Level Miami Center
03:19AM 19.1907 -78.6840 342° North  Level Estimated
03:19AM 22.9997 -78.0031 337° Northwest 379 436 38,000  Level Miami Center
03:20AM 19.3076 -78.7252 342° North  Level Estimated
03:20AM 23.0975 -78.0539 334° Northwest 379 436 38,000  Level Miami Center
03:21AM 19.4245 -78.7664 342° North  Level Estimated
03:21AM 23.1933 -78.0931 339° North 379 436 38,000  Level Miami Center
03:22AM 19.5416 -78.8077 342° North  Level Estimated
03:22AM 23.2892 -78.1392 336° Northwest 374 430 38,000  Level Miami Center
03:23AM 23.3847 -78.1853 336° Northwest 374 430 38,000  Level Miami Center
03:24AM 23.4786 -78.2225 340° North 374 430 38,000  Level Miami Center
03:25AM 23.5783 -78.2714 336° Northwest 374 430 38,000  Level Miami Center
03:26AM 23.6739 -78.3178 336° Northwest 374 430 38,000  Level Miami Center
03:27AM 23.7678 -78.3550 340° North 374 430 38,000  Level Miami Center
03:28AM 23.8633 -78.4017 336° Northwest 374 430 38,000  Level Miami Center
03:29AM 23.9592 -78.4439 338° Northwest 374 430 38,000  Level Miami Center
03:30AM 24.0525 -78.4928 334° Northwest 374 430 38,000  Level Miami Center
03:35AM 24.5450 -78.7660 334° Northwest 361 415 38,000  Level FlightAware
03:36AM 24.6120 -78.8040 333° Northwest 367 422 38,000  Level FlightAware
03:36AM 24.6720 -78.8390 332° Northwest 366 421 38,000  Level FlightAware
03:37AM 24.7340 -78.8730 334° Northwest 367 422 38,000  Level FlightAware
03:38AM 24.8010 -78.9120 332° Northwest 367 422 38,000  Level FlightAware
03:38AM 24.8630 -78.9470 333° Northwest 361 415 38,000  Level FlightAware
03:39AM 24.9300 -78.9850 333° Northwest 362 417 38,000  Level FlightAware
03:40AM 24.9920 -79.0210 332° Northwest 363 418 38,000  Level FlightAware
03:40AM 25.0540 -79.0560 333° Northwest 365 420 38,000  Level FlightAware
03:41AM 25.1230 -79.0950 333° Northwest 366 421 38,000  Level FlightAware
03:42AM 25.1830 -79.1300 332° Northwest 366 421 38,000  Level FlightAware
03:43AM 25.2520 -79.1690 333° Northwest 367 422 38,000  Level FlightAware
03:43AM 25.3170 -79.2070 332° Northwest 367 422 38,000  Level FlightAware
03:44AM 25.3780 -79.2420 333° Northwest 366 421 38,000  Level FlightAware
03:45AM 25.4470 -79.2810 333° Northwest 366 421 38,000  Level FlightAware
03:45AM 25.5090 -79.3170 332° Northwest 365 420 38,000  Level FlightAware
03:46AM 25.5690 -79.3520 332° Northwest 365 420 38,000  Level FlightAware
03:47AM 25.6390 -79.3920 333° Northwest 365 420 38,000  Level FlightAware
03:47AM 25.7000 -79.4270 333° Northwest 365 420 38,000  Level FlightAware
03:48AM 25.7690 -79.4680 332° Northwest 364 419 38,000  Level FlightAware
03:49AM 25.8300 -79.5030 333° Northwest 362 417 38,000  Level FlightAware
03:50AM 25.8890 -79.5380 332° Northwest 361 415 38,000  Level FlightAware
03:50AM 25.9590 -79.5780 333° Northwest 366 421 38,000  Level FlightAware
03:51AM 26.0190 -79.6130 332° Northwest 366 421 38,000  Level FlightAware
03:52AM 26.0870 -79.6520 333° Northwest 367 422 38,000  Level FlightAware
03:52AM 26.1470 -79.6870 332° Northwest 368 423 38,000  Level FlightAware
03:53AM 26.2150 -79.7280 332° Northwest 368 423 38,000  Level FlightAware
03:54AM 26.2760 -79.7620 333° Northwest 368 423 38,000  Level FlightAware
03:54AM 26.3360 -79.7980 332° Northwest 368 423 38,000  Level FlightAware
03:55AM 26.4040 -79.8380 332° Northwest 369 425 38,000  Level FlightAware
03:56AM 26.4650 -79.8730 333° Northwest 369 425 38,000  Level FlightAware
03:57AM 26.5330 -79.9140 332° Northwest 363 418 38,000  Level FlightAware
03:57AM 26.5940 -79.9500 332° Northwest 364 419 38,000  Level FlightAware
03:58AM 26.6630 -79.9890 333° Northwest 365 420 38,000  Level FlightAware
03:59AM 26.7250 -80.0270 331° Northwest 364 419 38,000  Level FlightAware
03:59AM 26.7830 -80.0610 332° Northwest 364 419 38,000  Level FlightAware
04:00AM 26.8530 -80.1020 332° Northwest 363 418 38,000  Level FlightAware
04:01AM 26.9160 -80.1390 332° Northwest 362 417 38,000  Level FlightAware
04:02AM 26.9850 -80.1800 332° Northwest 362 417 38,000  Level FlightAware
04:02AM 27.0440 -80.2150 332° Northwest 367 422 38,000  Level FlightAware
04:03AM 27.1030 -80.2500 332° Northwest 365 420 38,000  Level FlightAware
04:04AM 27.1640 -80.2870 332° Northwest 365 420 38,000  Level FlightAware
04:04AM 27.2330 -80.3280 332° Northwest 364 419 38,000  Level FlightAware
04:05AM 27.3120 -80.3750 332° Northwest 363 418 38,000  Level FlightAware
04:06AM 27.3730 -80.4110 332° Northwest 362 417 38,000  Level FlightAware
04:07AM 27.4380 -80.4500 332° Northwest 363 418 38,000  Level FlightAware
04:07AM 27.4980 -80.4860 332° Northwest 364 419 38,000  Level FlightAware
04:08AM 27.5650 -80.5270 332° Northwest 364 419 38,000  Level FlightAware
04:09AM 27.6240 -80.5620 332° Northwest 364 419 38,000  Level FlightAware
04:09AM 27.6850 -80.5990 332° Northwest 365 420 38,000  Level FlightAware
04:10AM 27.7510 -80.6390 332° Northwest 365 420 38,000  Level FlightAware
04:11AM 27.8130 -80.6760 332° Northwest 366 421 38,000  Level FlightAware
04:12AM 27.8790 -80.7160 332° Northwest 366 421 38,000  Level FlightAware
04:12AM 27.9400 -80.7530 332° Northwest 367 422 38,000  Level FlightAware
04:13AM 28.0060 -80.7930 332° Northwest 366 421 38,000  Level FlightAware
04:14AM 28.0660 -80.8290 332° Northwest 366 421 38,000  Level FlightAware
04:14AM 28.1270 -80.8660 332° Northwest 366 421 38,000  Level FlightAware
04:15AM 28.1950 -80.9070 332° Northwest 366 421 38,000  Level FlightAware
04:16AM 28.2550 -80.9440 331° Northwest 366 421 38,000  Level FlightAware
04:16AM 28.3220 -80.9850 332° Northwest 366 421 38,000  Level FlightAware
04:17AM 28.3810 -81.0210 332° Northwest 366 421 38,000  Level FlightAware
04:18AM 28.4410 -81.0580 332° Northwest 368 423 38,000  Level FlightAware
04:19AM 28.5080 -81.0990 332° Northwest 368 423 38,000  Level FlightAware
04:19AM 28.5700 -81.1360 332° Northwest 367 422 38,000  Level FlightAware
04:20AM 28.6340 -81.1760 331° Northwest 366 421 38,000  Level FlightAware
04:21AM 28.6950 -81.2140 331° Northwest 365 420 38,000  Level FlightAware
04:21AM 28.7560 -81.2510 332° Northwest 365 420 38,000  Level FlightAware
04:22AM 28.8220 -81.2920 331° Northwest 365 420 38,000  Level FlightAware
04:23AM 28.8820 -81.3290 332° Northwest 365 420 38,000  Level FlightAware
04:23AM 28.9430 -81.3670 331° Northwest 366 421 38,000  Level FlightAware
04:24AM 29.0040 -81.4040 332° Northwest 366 421 38,000  Level FlightAware
04:25AM 29.0780 -81.4510 331° Northwest 366 421 38,000  Level FlightAware
04:26AM 29.1370 -81.4870 332° Northwest 366 421 38,000  Level FlightAware
04:26AM 29.2050 -81.5300 331° Northwest 366 421 38,000  Level FlightAware
04:27AM 29.2630 -81.5660 332° Northwest 367 422 38,000  Level FlightAware
04:28AM 29.3250 -81.6040 332° Northwest 366 421 38,000  Level FlightAware
04:28AM 29.3800 -81.6380 332° Northwest 366 421 38,000  Level FlightAware
04:29AM 29.4510 -81.6830 331° Northwest 365 420 38,000  Level FlightAware
04:30AM 29.5180 -81.7250 331° Northwest 366 421 38,000  Level FlightAware
04:30AM 29.5750 -81.7610 331° Northwest 365 420 38,000  Level FlightAware
04:31AM 29.6450 -81.8050 331° Northwest 365 420 38,000  Level FlightAware
04:32AM 29.7070 -81.8450 331° Northwest 365 420 38,000  Level FlightAware
04:33AM 29.7580 -81.8770 331° Northwest 365 420 38,000  Level FlightAware
04:34AM 29.8520 -81.9360 331° Northwest 365 420 38,000  Level FlightAware
04:34AM 29.9120 -81.9730 332° Northwest 366 421 38,000  Level FlightAware
04:35AM 29.9730 -82.0120 331° Northwest 367 422 38,000  Level FlightAware
04:36AM 30.0480 -82.0600 331° Northwest 368 423 38,000  Level FlightAware
04:36AM 30.0990 -82.0920 332° Northwest 368 423 38,000  Level FlightAware
04:37AM 30.1490 -82.1250 330° Northwest 368 423 38,000  Level FlightAware
04:38AM 30.2120 -82.1650 331° Northwest 368 423 38,000  Level FlightAware
04:39AM 30.2630 -82.1980 331° Northwest 368 423 38,000  Level FlightAware
04:39AM 30.3140 -82.2300 332° Northwest 368 423 38,000  Level FlightAware
04:40AM 30.3640 -82.2630 330° Northwest 368 423 38,000  Level FlightAware
04:41AM 30.4150 -82.2950 332° Northwest 368 423 38,000  Level FlightAware
04:41AM 30.4660 -82.3280 331° Northwest 368 423 38,000  Level FlightAware
04:42AM 30.5290 -82.3680 331° Northwest 368 423 38,000  Level FlightAware
04:43AM 30.5790 -82.4010 330° Northwest 368 423 38,000  Level FlightAware
04:43AM 30.6300 -82.4340 331° Northwest 368 423 38,000  Level FlightAware
04:44AM 30.6810 -82.4660 332° Northwest 368 423 38,000  Level FlightAware
04:45AM 30.7440 -82.5070 331° Northwest 368 423 38,000  Level FlightAware
04:46AM 31.0133 -82.5000 331° Northwest 394 453 38,000  Level Jacksonville Center
04:47AM 31.1242 -82.5236 350° North 394 453 38,000  Level Jacksonville Center
04:48AM 31.2369 -82.5500 349° North 394 453 38,000  Level Jacksonville Center
04:49AM 31.3478 -82.5739 350° North 399 459 38,000  Level Jacksonville Center
04:50AM 31.4625 -82.5906 353° North 404 465 38,000  Level Jacksonville Center
04:51AM 31.6678 -82.6358 349° North 415 478 38,000  Level Atlanta Center
04:52AM 31.7806 -82.6633 348° North 410 472 38,000  Level Atlanta Center
04:53AM 31.8875 -82.7008 343° North 410 472 38,000  Level Atlanta Center
04:54AM 31.9781 -82.7706 327° Northwest 387 445 38,000  Level Atlanta Center
04:55AM 32.0664 -82.8428 325° Northwest 387 445 38,000  Level Atlanta Center
04:56AM 32.1547 -82.9178 324° Northwest 387 445 38,000 -1,740 Level Atlanta Center
04:58AM 32.2584 -83.0212 320° Northwest  Level Estimated
05:05AM 32.9061 -83.6747 320° Northwest  Level Estimated
05:06AM 32.9983 -83.7689 319° Northwest  Level Estimated
05:07AM 33.0905 -83.8632 319° Northwest  Level Estimated
05:08AM 33.1826 -83.9578 319° Northwest  Level Estimated
05:09AM 33.2747 -84.0525 319° Northwest  Level Estimated
05:09AM 33.2740 -83.8960 319° Northwest 395 455 14,900  Level FlightAware
05:09AM 33.3150 -83.9570 309° West 375 432 14,000 -1,380 Descending FlightAware
05:10AM 33.3740 -84.0480 308° West 374 430 12,800 -660 Descending FlightAware
05:11AM 33.4180 -84.1180 307° West 374 430 12,800 -540 Level FlightAware
05:12AM 33.4590 -84.1800 308° West 11,900 -840 Descending FlightAware
05:12AM 33.5010 -84.2430 309° West 306 352 11,700 -660 Descending FlightAware
05:13AM 33.5120 -84.2900 286° West 284 327 11,100 -1,800 Descending FlightAware
05:13AM 33.5180 -84.3370 279° West 273 314 9,900 -2,400 Descending FlightAware
05:14AM 33.5230 -84.3700 280° West 271 312 8,900 -2,700 Descending FlightAware
05:14AM 33.5270 -84.3960 280° West 272 313 8,100 -2,640 Descending FlightAware
05:15AM 33.5350 -84.4500 280° West 263 303 6,500 -2,700 Descending FlightAware
05:15AM 33.5370 -84.4630 280° West 262 302 6,100 -2,160 Descending FlightAware
05:16AM 33.5450 -84.5180 280° West 244 281 4,900 -1,080 Descending FlightAware
05:16AM 33.5500 -84.5490 281° West 244 281 4,900 -720 Level FlightAware
05:19AM 33.6190 -84.5910 333° Northwest 206 237 2,900 -720 Descending FlightAware
05:19AM 33.6290 -84.5650 65° Northeast 206 237 2,900 -720 Level FlightAware
05:19AM 33.6310 -84.5370 85° East 199 229 2,400 -1,200 Descending FlightAware
05:20AM 33.6320 -84.5150 87° East 180 207 2,000 -900 Descending FlightAware
05:20AM 33.6320 -84.4900 90° East 148 170 1,600 -840 Descending FlightAware
05:20AM 33.6320 -84.4750 90° East 145 167 1,400 -780 Descending FlightAware
05:21AM 33.6320 -84.4560 90° East 141 162 1,100 -480 Descending FlightAware
05:21AM 33.6320 -84.4360 90° East 140 161 1,000 -240 Descending FlightAware